createdAt,value
2022-12-02T00:03:16.077Z,107.39523
2022-12-02T00:08:18.003Z,104.41667
2022-12-02T00:13:19.515Z,101.94872
2022-12-02T00:18:21.184Z,103.58549
2022-12-02T00:23:22.919Z,105.25654
2022-12-02T00:28:24.447Z,106.10526
2022-12-02T00:33:25.915Z,106.53298
2022-12-02T00:38:27.621Z,108.70588
2022-12-02T00:43:29.309Z,112.76712
2022-12-02T00:48:30.762Z,110.03774
2022-12-02T00:53:32.295Z,111.84741
2022-12-02T00:58:33.986Z,112.76712
2022-12-02T01:03:36.716Z,117.52113
2022-12-02T01:08:52.642Z,117.52113
2022-12-02T01:14:04.597Z,117.52113
2022-12-02T01:19:16.242Z,120
2022-12-02T01:24:25.997Z,118.50425
2022-12-02T01:29:27.727Z,115.58774
2022-12-02T01:34:29.315Z,117.03371
2022-12-02T01:39:31.246Z,115.58774
2022-12-02T01:44:32.852Z,117.03371
2022-12-02T01:49:34.270Z,116.06704
2022-12-02T01:54:35.822Z,114.16575
2022-12-02T01:59:37.272Z,111.3913
2022-12-02T02:04:38.751Z,113.69697
2022-12-02T02:09:40.692Z,112.30601
2022-12-02T02:14:42.150Z,111.3913
2022-12-02T02:19:43.758Z,109.5914
2022-12-02T02:24:45.291Z,116.06704
2022-12-02T02:29:47.292Z,113.69697
2022-12-02T02:34:49.126Z,117.03371
2022-12-02T02:39:51.133Z,112.30601
2022-12-02T02:44:53.019Z,112.30601
2022-12-02T02:49:55.112Z,106.96296
2022-12-02T02:54:56.606Z,109.14745
2022-12-02T02:59:58.378Z,110.93767
2022-12-02T03:04:59.975Z,112.30601
2022-12-02T03:10:01.946Z,110.93767
2022-12-02T03:15:03.822Z,110.03774
2022-12-02T03:20:05.758Z,106.53298
2022-12-02T03:25:07.760Z,100.743
2022-12-02T03:30:09.473Z,100.743
2022-12-02T03:35:11.596Z,102.76289
2022-12-02T03:40:13.606Z,104
2022-12-02T03:45:15.330Z,112.76712
2022-12-02T03:50:17.089Z,112.76712
2022-12-02T03:55:18.860Z,115.11111
2022-12-02T04:00:20.585Z,133.53846
2022-12-02T04:05:22.082Z,140.17834
2022-12-02T04:10:23.774Z,141.4359
2022-12-02T04:15:25.236Z,146.63158
2022-12-02T04:20:26.682Z,147.30033
2022-12-02T04:25:28.259Z,154.9589
2022-12-02T04:30:29.732Z,152.81356
2022-12-02T04:35:31.406Z,169.64103
2022-12-02T04:40:33.380Z,161.66784
2022-12-02T04:45:34.930Z,170.47059
2022-12-02T04:50:36.509Z,167.18841
2022-12-02T04:55:38.682Z,156.41379
2022-12-02T05:00:40.420Z,133.53846
2022-12-02T05:05:42.174Z,139.55556
2022-12-02T05:10:44.155Z,132.95706
2022-12-02T05:15:46.011Z,148.65116
2022-12-02T05:20:47.731Z,150.71141
2022-12-02T05:25:49.382Z,141.4359
2022-12-02T05:30:51.048Z,157.88889
2022-12-02T05:35:52.710Z,147.97351
2022-12-02T05:40:54.615Z,159.38462
2022-12-02T05:45:56.158Z,166.38267
2022-12-02T05:50:57.808Z,174.71161
2022-12-02T05:55:59.430Z,234.56604
2022-12-02T06:01:00.996Z,273.41176
2022-12-02T06:06:02.690Z,255.11111
2022-12-02T06:11:04.345Z,275.1828
2022-12-02T06:16:05.879Z,284.33149
2022-12-02T06:21:07.485Z,288.13408
2022-12-02T06:26:09.174Z,292.0226
2022-12-02T06:31:10.793Z,304.23392
2022-12-02T06:36:12.642Z,321.91411
2022-12-02T06:41:14.800Z,284.33149
2022-12-02T06:46:16.626Z,282.46154
2022-12-02T06:51:18.441Z,282.46154
2022-12-02T06:56:20.345Z,312.86228
2022-12-02T07:01:22.183Z,312.86228
2022-12-02T07:06:23.730Z,310.66667
2022-12-02T07:11:25.754Z,304.23392
2022-12-02T07:16:27.310Z,336.35669
2022-12-02T07:21:28.961Z,354.66667
2022-12-02T07:26:30.690Z,324.24691
2022-12-02T07:31:32.616Z,344
2022-12-02T07:36:34.287Z,396.94118
2022-12-02T07:41:37.169Z,380.87943
2022-12-02T07:46:39.150Z,429.03937
2022-12-02T07:51:40.954Z,440.77419
2022-12-02T07:56:42.760Z,436.8
2022-12-02T08:01:44.351Z,444.81301
2022-12-02T08:06:46.328Z,421.51938
2022-12-02T08:11:48.350Z,421.51938
2022-12-02T08:16:50.113Z,403.70149
2022-12-02T08:21:51.909Z,417.84615
2022-12-02T08:26:53.423Z,457.33333
2022-12-02T08:31:54.929Z,407.15789
2022-12-02T08:36:56.501Z,479.65217
2022-12-02T08:41:58.149Z,407.15789
2022-12-02T08:46:59.746Z,407.15789
2022-12-02T08:52:01.299Z,514.37037
2022-12-02T08:57:02.845Z,525.13208
2022-12-02T09:02:04.611Z,542.05825
2022-12-02T09:07:06.407Z,509.13761
2022-12-02T09:12:09.158Z,384
2022-12-02T09:17:10.948Z,403.70149
2022-12-02T09:22:12.730Z,425.25
2022-12-02T09:27:14.498Z,410.66667
2022-12-02T09:32:16.249Z,414.22901
2022-12-02T09:37:18.054Z,432.88889
2022-12-02T09:42:20.168Z,444.81301
2022-12-02T09:47:21.762Z,453.09091
2022-12-02T09:52:26.167Z,536.30769
2022-12-02T09:57:28.099Z,553.90099
2022-12-02T10:02:29.590Z,494
2022-12-02T10:07:31.271Z,448.91803
2022-12-02T10:12:33.312Z,484.35088
2022-12-02T10:17:34.873Z,536.30769
2022-12-02T10:22:36.470Z,475.03448
2022-12-02T10:27:38.329Z,606.36559
2022-12-02T10:32:40.199Z,566.22222
2022-12-02T10:37:42.129Z,579.05155
2022-12-02T10:42:44.216Z,644
2022-12-02T10:47:46.228Z,620.92308
2022-12-02T10:52:48.091Z,519.70093
2022-12-02T10:57:50.035Z,560
2022-12-02T11:02:51.931Z,547.92157
2022-12-02T11:07:53.814Z,585.66667
2022-12-02T11:12:56.158Z,536.30769
2022-12-02T11:17:58.048Z,572.57143
2022-12-02T11:22:59.980Z,470.49573
2022-12-02T11:28:01.915Z,504
2022-12-02T11:33:03.803Z,484.35088
2022-12-02T11:38:05.694Z,606.36559
2022-12-02T11:43:07.801Z,560
2022-12-02T11:48:09.759Z,592.42105
2022-12-02T11:53:11.588Z,572.57143
2022-12-02T11:58:13.485Z,494
2022-12-02T12:03:15.437Z,547.92157
2022-12-02T12:08:17.375Z,504
2022-12-02T12:13:19.418Z,592.42105
2022-12-02T12:18:21.428Z,498.95495
2022-12-02T12:23:23.301Z,479.65217
2022-12-02T12:28:25.028Z,504
2022-12-02T12:33:26.632Z,525.13208
2022-12-02T12:38:30.714Z,514.37037
2022-12-02T12:43:32.881Z,432.88889
2022-12-02T12:48:34.613Z,536.30769
2022-12-02T12:53:36.291Z,448.91803
2022-12-02T12:58:37.823Z,417.84615
2022-12-02T13:03:39.627Z,448.91803
2022-12-02T13:08:41.120Z,436.8
2022-12-02T13:13:42.946Z,453.09091
2022-12-02T13:18:44.459Z,466.0339
2022-12-02T13:23:46.145Z,440.77419
2022-12-02T13:28:47.660Z,448.91803
2022-12-02T13:33:49.161Z,494
2022-12-02T13:38:50.785Z,553.90099
2022-12-02T13:43:52.871Z,498.95495
2022-12-02T13:48:54.514Z,536.30769
2022-12-02T13:53:59.111Z,489.13274
2022-12-02T13:59:01.312Z,509.13761
2022-12-02T14:04:02.949Z,566.22222
2022-12-02T14:09:04.577Z,484.35088
2022-12-02T14:14:06.568Z,566.22222
2022-12-02T14:19:08.147Z,466.0339
2022-12-02T14:24:09.847Z,519.70093
2022-12-02T14:29:11.299Z,494
2022-12-02T14:34:13.646Z,494
2022-12-02T14:39:15.695Z,407.15789
2022-12-02T14:44:17.330Z,470.49573
2022-12-02T14:49:39.506Z,425.25
2022-12-02T14:54:42.143Z,417.84615
2022-12-02T14:59:44.092Z,421.51938
2022-12-02T15:04:45.840Z,429.03937
2022-12-02T15:09:47.644Z,448.91803
2022-12-02T15:14:50.084Z,444.81301
2022-12-02T15:19:52.109Z,390.37681
2022-12-02T15:24:54.385Z,387.16547
2022-12-02T15:29:56.614Z,403.70149
2022-12-02T15:34:58.402Z,387.16547
2022-12-02T15:40:00.200Z,377.80282
2022-12-02T15:45:02.701Z,357.42282
2022-12-02T15:50:04.489Z,374.76923
2022-12-02T15:55:06.287Z,346.61438
2022-12-02T16:00:08.126Z,298.02299
2022-12-02T16:05:09.869Z,331.42138
2022-12-02T16:10:11.639Z,304.23392
2022-12-02T16:15:13.750Z,290.06742
2022-12-02T16:20:15.516Z,258.28571
2022-12-02T16:25:17.267Z,244.4878
2022-12-02T16:30:19.278Z,244.4878
2022-12-02T16:35:21.157Z,227.87097
2022-12-02T16:40:22.896Z,247.44828
2022-12-02T16:45:24.819Z,234.56604
2022-12-02T16:50:26.669Z,207.24786
2022-12-02T16:55:28.522Z,188.44444
2022-12-02T17:00:30.196Z,177.33333
2022-12-02T17:05:31.731Z,168.81752
2022-12-02T17:10:33.522Z,158.63415
2022-12-02T17:15:35.595Z,147.30033
2022-12-02T17:20:37.053Z,144.65147
2022-12-02T17:25:38.535Z,148.65116
2022-12-02T17:30:40.231Z,149.33333
2022-12-02T17:35:41.802Z,135.90031
2022-12-02T17:40:43.573Z,134.71207
2022-12-02T17:45:45.603Z,142.07074
2022-12-02T17:50:47.414Z,154.23891
2022-12-02T17:55:49.196Z,170.47059
2022-12-02T18:00:50.857Z,157.14879
2022-12-02T18:05:52.596Z,142.07074
2022-12-02T18:10:54.442Z,146.63158
2022-12-02T18:15:56.468Z,144.65147
2022-12-02T18:20:58.190Z,153.52381
2022-12-02T18:25:59.948Z,135.90031
2022-12-02T18:31:02.175Z,125.71091
2022-12-02T18:36:03.980Z,110.48649
2022-12-02T18:41:05.735Z,111.84741
2022-12-02T18:46:07.751Z,140.17834
2022-12-02T18:51:09.597Z,131.23404
2022-12-02T18:56:11.360Z,123.06977
2022-12-02T19:01:13.206Z,120.5043
2022-12-02T19:06:15.063Z,121.01149
2022-12-02T19:11:16.787Z,134.12346
2022-12-02T19:16:18.934Z,152.81356
2022-12-02T19:21:24.762Z,137.10345
2022-12-02T19:26:26.841Z,145.96721
2022-12-02T19:31:28.372Z,142.70968
2022-12-02T19:36:30.184Z,238.73684
2022-12-02T19:41:31.629Z,425.25
2022-12-02T19:46:33.493Z,489.13274
2022-12-02T19:51:35.311Z,566.22222
2022-12-02T19:56:36.861Z,606.36559
2022-12-02T20:01:39.370Z,566.22222
2022-12-02T20:06:41.138Z,566.22222
2022-12-02T20:11:42.580Z,592.42105
2022-12-02T20:16:44.529Z,542.05825
2022-12-02T20:21:46.048Z,547.92157
2022-12-02T20:32:03.466Z,509.13761
2022-12-02T20:37:06.564Z,484.35088
2022-12-02T20:42:09.938Z,479.65217
2022-12-02T20:47:12.299Z,403.70149
2022-12-02T20:52:13.767Z,436.8
2022-12-02T20:57:16.149Z,403.70149
2022-12-02T21:02:18.054Z,403.70149
2022-12-02T21:07:19.947Z,421.51938
2022-12-02T21:12:21.768Z,417.84615
2022-12-02T21:17:24.094Z,368.82759
2022-12-02T21:22:25.853Z,346.61438
2022-12-02T21:27:27.355Z,351.94702
2022-12-02T21:32:29.063Z,269.92593
2022-12-02T21:37:30.565Z,268.21053
2022-12-02T21:42:32.660Z,351.94702
2022-12-02T21:47:34.935Z,127.33333
2022-12-02T21:52:36.498Z,256.69036
2022-12-02T21:57:38.287Z,403.70149
2022-12-02T22:02:40.237Z,436.8
2022-12-02T22:07:42.556Z,421.51938
2022-12-02T22:12:44.558Z,351.94702
2022-12-02T22:17:46.696Z,280.61202
2022-12-02T22:22:48.645Z,271.65957
2022-12-02T22:27:50.423Z,259.89744
2022-12-02T22:32:52.751Z,333.87342
2022-12-02T22:37:54.684Z,300.06936
2022-12-02T22:42:56.807Z,282.46154
2022-12-02T22:47:59.016Z,276.97297
2022-12-02T22:53:01.078Z,280.61202
2022-12-02T22:58:03.028Z,306.35294
2022-12-02T23:03:05.174Z,271.65957
2022-12-02T23:08:07.084Z,215.36564
2022-12-02T23:13:09.133Z,226.56881
2022-12-02T23:18:11.297Z,229.18519
2022-12-02T23:23:13.654Z,219
2022-12-02T23:28:15.577Z,248.9505
2022-12-02T23:33:17.338Z,214.17544
2022-12-02T23:38:19.738Z,201.74059
2022-12-02T23:43:21.502Z,180.01533
2022-12-02T23:48:23.917Z,185.56863
2022-12-02T23:53:25.806Z,182.75969
2022-12-02T23:58:27.293Z,179.1145
